Newport, OR

11:38 PM PDT on September 22, 2014 (GMT -0700)
Corvallis Municipal | Change Station
CLOSE
Current Station
Airport
Location: Corvallis,
Elevation: 246 ft
Nearby Weather Stations
Active Advisory: Special Statement

Elev 246 ft 44.50 °N, 123.29 °W | Updated 3 minutes ago

Partly Cloudy
Partly Cloudy
59 °F
Feels Like 59 °F
N
6
Wind Variable Wind from WNW

Today
High -- | Low -- °F
--% Chance of Precip.
Yesterday
High -- | Low -- °F
Precip. -- in
7:03 AM 7:13 PM
Waning Crescent, 1% visible
Pressure 29.94 in
Visibility 10.0 miles
Clouds Clear
Dew Point 55 °F
Humidity 88%
Rainfall 0.00 in
Snow Depth 0 in , 0 in , 0 in
UV 0 out of 12
Pollen 1.80 out of 12
Air Quality Not available.
Flu Activity Not available.
METAR KCVO 230635Z AUTO 29005KT 10SM CLR 15/13 A2994 RMK AO1

More Conditions Fewer Conditions

Pressure 29.94 in
Visibility 10.0 miles
Clouds Clear
Dew Point 55 °F
Humidity 88%
Rainfall 0.00 in
Snow Depth 0 in , 0 in , 0 in
UV 0 out of 12
Pollen 1.80 out of 12
Air Quality Not available.
Flu Activity Not available.
METAR KCVO 230635Z AUTO 29005KT 10SM CLR 15/13 A2994 RMK AO1

More Conditions Fewer Conditions

10-Day Weather Forecast

Almanac

Astronomy

Sep. 22, 2014 Rise Set
Actual Time 7:03 AM PDT 7:13 PM PDT
Civil Twilight 6:34 AM PDT 7:42 PM PDT
Nautical Twilight 5:59 AM PDT 8:16 PM PDT
Astronomical Twilight 5:24 AM PDT 8:51 PM PDT
Moon 5:34 AM PDT (9/22) 6:25 PM PDT (9/22)
Length of Visible Light 13h 08m
Length of Day
12h 10m
Tomorrow will be 3m 5s shorter.
Waning Crescent, 1% of the Moon is Illuminated
Sep 23
Waning Crescent
Sep 24
New
Oct 1
First Quarter
Oct 8
Full
Oct 15
Last Quarter

Yesterday's Extremes

State Highs State Lows

Community

WunderPhotos

Upload Photos

1,755,608 photos uploaded!

Nearby

Snow Depth

Station Depth Elevation
Bowman Springs 0 in 4580 ft
Salt Creek Falls 0 in 4000 ft
Snow Mountain 0 in 6220 ft
Blazed Alder 0 in 3650 ft
Billie Creek Divide 0 in 5300 ft

Earthquake Activity

City Distance Mag. Time & Date
No recent earthquake activity has been reported nearby.
Minimum magnitude displayed is 2.5.

Coastal Water Temperatures

Place Temperature
South Beach, OR 55.9 °F
Charleston, OR 59.0 °F

Nearby Weather Stations